sensor_id;sensor_type;location;lat;lon;timestamp;P1;durP1;ratioP1;P2;durP2;ratioP2
69714;SDS011;56981;53.532;49.398;2023-08-06T00:01:59;9.75;;;8.43;;
69714;SDS011;56981;53.532;49.398;2023-08-06T00:04:30;8.88;;;7.90;;
69714;SDS011;56981;53.532;49.398;2023-08-06T00:07:01;9.43;;;8.45;;
69714;SDS011;56981;53.532;49.398;2023-08-06T00:09:32;9.73;;;7.63;;
69714;SDS011;56981;53.532;49.398;2023-08-06T00:12:04;9.35;;;8.35;;
69714;SDS011;56981;53.532;49.398;2023-08-06T00:14:35;10.43;;;7.93;;
69714;SDS011;56981;53.532;49.398;2023-08-06T00:17:07;9.23;;;8.23;;
69714;SDS011;56981;53.532;49.398;2023-08-06T00:19:38;9.55;;;8.48;;
69714;SDS011;56981;53.532;49.398;2023-08-06T00:22:09;10.05;;;7.65;;
69714;SDS011;56981;53.532;49.398;2023-08-06T00:24:40;9.60;;;8.18;;
69714;SDS011;56981;53.532;49.398;2023-08-06T00:27:12;10.93;;;7.47;;
69714;SDS011;56981;53.532;49.398;2023-08-06T00:29:43;9.43;;;8.43;;
69714;SDS011;56981;53.532;49.398;2023-08-06T00:32:14;8.00;;;7.10;;
69714;SDS011;56981;53.532;49.398;2023-08-06T00:34:46;10.73;;;7.88;;
69714;SDS011;56981;53.532;49.398;2023-08-06T00:37:17;8.30;;;7.50;;
69714;SDS011;56981;53.532;49.398;2023-08-06T00:39:48;12.18;;;8.45;;
69714;SDS011;56981;53.532;49.398;2023-08-06T00:42:19;10.80;;;7.97;;
69714;SDS011;56981;53.532;49.398;2023-08-06T00:44:52;8.52;;;7.63;;
69714;SDS011;56981;53.532;49.398;2023-08-06T00:47:23;8.70;;;7.80;;
69714;SDS011;56981;53.532;49.398;2023-08-06T00:49:54;10.82;;;7.95;;
69714;SDS011;56981;53.532;49.398;2023-08-06T00:52:25;10.98;;;8.02;;
69714;SDS011;56981;53.532;49.398;2023-08-06T00:54:57;11.63;;;8.55;;
69714;SDS011;56981;53.532;49.398;2023-08-06T00:57:28;11.07;;;7.82;;
69714;SDS011;56981;53.532;49.398;2023-08-06T00:59:59;10.02;;;7.70;;
69714;SDS011;56981;53.532;49.398;2023-08-06T01:02:31;10.43;;;8.35;;
69714;SDS011;56981;53.532;49.398;2023-08-06T01:05:02;10.75;;;7.75;;
69714;SDS011;56981;53.532;49.398;2023-08-06T01:07:45;11.32;;;9.05;;
69714;SDS011;56981;53.532;49.398;2023-08-06T01:10:40;11.68;;;7.95;;
69714;SDS011;56981;53.532;49.398;2023-08-06T01:16:09;8.15;;;7.45;;
69714;SDS011;56981;53.532;49.398;2023-08-06T01:18:42;9.95;;;8.13;;
69714;SDS011;56981;53.532;49.398;2023-08-06T01:21:17;11.70;;;8.50;;
69714;SDS011;56981;53.532;49.398;2023-08-06T01:23:49;10.20;;;7.78;;
69714;SDS011;56981;53.532;49.398;2023-08-06T01:26:25;12.38;;;8.45;;
69714;SDS011;56981;53.532;49.398;2023-08-06T01:29:12;10.05;;;7.90;;
69714;SDS011;56981;53.532;49.398;2023-08-06T01:31:48;12.05;;;8.75;;
69714;SDS011;56981;53.532;49.398;2023-08-06T01:34:23;11.55;;;8.80;;
69714;SDS011;56981;53.532;49.398;2023-08-06T01:36:56;11.18;;;8.43;;
69714;SDS011;56981;53.532;49.398;2023-08-06T01:39:28;10.30;;;7.20;;
69714;SDS011;56981;53.532;49.398;2023-08-06T01:42:00;13.55;;;7.85;;
69714;SDS011;56981;53.532;49.398;2023-08-06T01:44:31;10.73;;;8.63;;
69714;SDS011;56981;53.532;49.398;2023-08-06T01:47:03;9.57;;;8.25;;
69714;SDS011;56981;53.532;49.398;2023-08-06T01:49:34;11.82;;;7.53;;
69714;SDS011;56981;53.532;49.398;2023-08-06T01:52:08;8.52;;;7.40;;
69714;SDS011;56981;53.532;49.398;2023-08-06T01:54:40;8.98;;;8.07;;
69714;SDS011;56981;53.532;49.398;2023-08-06T01:57:11;7.75;;;6.95;;
69714;SDS011;56981;53.532;49.398;2023-08-06T01:59:43;9.27;;;7.22;;
69714;SDS011;56981;53.532;49.398;2023-08-06T02:02:14;10.70;;;7.68;;
69714;SDS011;56981;53.532;49.398;2023-08-06T02:04:45;12.23;;;7.70;;
69714;SDS011;56981;53.532;49.398;2023-08-06T02:07:17;9.55;;;7.35;;
69714;SDS011;56981;53.532;49.398;2023-08-06T02:09:48;8.57;;;7.05;;
69714;SDS011;56981;53.532;49.398;2023-08-06T02:12:19;8.63;;;7.07;;
69714;SDS011;56981;53.532;49.398;2023-08-06T02:14:50;8.10;;;7.30;;
69714;SDS011;56981;53.532;49.398;2023-08-06T02:17:22;9.30;;;7.32;;
69714;SDS011;56981;53.532;49.398;2023-08-06T02:19:53;10.10;;;7.05;;
69714;SDS011;56981;53.532;49.398;2023-08-06T02:22:24;7.95;;;6.88;;
69714;SDS011;56981;53.532;49.398;2023-08-06T02:24:56;8.00;;;7.10;;
69714;SDS011;56981;53.532;49.398;2023-08-06T02:27:27;9.90;;;7.50;;
69714;SDS011;56981;53.532;49.398;2023-08-06T02:29:59;7.95;;;7.13;;
69714;SDS011;56981;53.532;49.398;2023-08-06T02:32:30;8.20;;;6.82;;
69714;SDS011;56981;53.532;49.398;2023-08-06T02:35:03;7.80;;;6.90;;
69714;SDS011;56981;53.532;49.398;2023-08-06T02:37:34;9.32;;;6.18;;
69714;SDS011;56981;53.532;49.398;2023-08-06T02:40:06;9.40;;;6.97;;
69714;SDS011;56981;53.532;49.398;2023-08-06T02:42:37;8.70;;;6.20;;
69714;SDS011;56981;53.532;49.398;2023-08-06T02:45:08;6.38;;;5.78;;
69714;SDS011;56981;53.532;49.398;2023-08-06T02:47:40;7.65;;;5.95;;
69714;SDS011;56981;53.532;49.398;2023-08-06T02:50:11;6.20;;;5.68;;
69714;SDS011;56981;53.532;49.398;2023-08-06T02:52:43;7.28;;;5.63;;
69714;SDS011;56981;53.532;49.398;2023-08-06T02:55:14;6.70;;;6.00;;
69714;SDS011;56981;53.532;49.398;2023-08-06T02:57:45;6.78;;;5.32;;
69714;SDS011;56981;53.532;49.398;2023-08-06T03:00:16;7.10;;;5.43;;
69714;SDS011;56981;53.532;49.398;2023-08-06T03:02:48;5.78;;;5.15;;
69714;SDS011;56981;53.532;49.398;2023-08-06T03:05:19;8.18;;;5.13;;
69714;SDS011;56981;53.532;49.398;2023-08-06T03:07:51;14.30;;;5.28;;
69714;SDS011;56981;53.532;49.398;2023-08-06T03:10:22;8.05;;;5.05;;
69714;SDS011;56981;53.532;49.398;2023-08-06T03:12:53;5.40;;;4.90;;
69714;SDS011;56981;53.532;49.398;2023-08-06T03:15:24;5.47;;;4.97;;
69714;SDS011;56981;53.532;49.398;2023-08-06T03:17:56;8.57;;;5.22;;
69714;SDS011;56981;53.532;49.398;2023-08-06T03:20:27;7.78;;;5.63;;
69714;SDS011;56981;53.532;49.398;2023-08-06T03:22:59;5.40;;;4.90;;
69714;SDS011;56981;53.532;49.398;2023-08-06T03:25:30;5.28;;;4.78;;
69714;SDS011;56981;53.532;49.398;2023-08-06T03:28:01;5.55;;;5.05;;
69714;SDS011;56981;53.532;49.398;2023-08-06T03:30:33;7.53;;;5.25;;
69714;SDS011;56981;53.532;49.398;2023-08-06T03:33:04;7.50;;;5.63;;
69714;SDS011;56981;53.532;49.398;2023-08-06T03:35:36;5.95;;;5.10;;
69714;SDS011;56981;53.532;49.398;2023-08-06T03:38:07;6.30;;;4.90;;
69714;SDS011;56981;53.532;49.398;2023-08-06T03:40:38;5.45;;;5.05;;
69714;SDS011;56981;53.532;49.398;2023-08-06T03:43:09;6.20;;;5.57;;
69714;SDS011;56981;53.532;49.398;2023-08-06T03:45:40;5.07;;;4.57;;
69714;SDS011;56981;53.532;49.398;2023-08-06T03:48:12;5.88;;;4.32;;
69714;SDS011;56981;53.532;49.398;2023-08-06T03:50:43;5.47;;;4.18;;
69714;SDS011;56981;53.532;49.398;2023-08-06T03:53:14;4.90;;;4.50;;
69714;SDS011;56981;53.532;49.398;2023-08-06T03:55:45;6.65;;;4.78;;
69714;SDS011;56981;53.532;49.398;2023-08-06T03:58:16;4.97;;;4.57;;
69714;SDS011;56981;53.532;49.398;2023-08-06T04:00:47;4.97;;;4.10;;
69714;SDS011;56981;53.532;49.398;2023-08-06T04:03:19;9.88;;;4.18;;
69714;SDS011;56981;53.532;49.398;2023-08-06T04:05:50;4.45;;;3.67;;
69714;SDS011;56981;53.532;49.398;2023-08-06T04:08:21;4.43;;;4.05;;
69714;SDS011;56981;53.532;49.398;2023-08-06T04:10:52;4.90;;;3.70;;
69714;SDS011;56981;53.532;49.398;2023-08-06T04:13:24;4.97;;;3.60;;
69714;SDS011;56981;53.532;49.398;2023-08-06T04:15:55;4.28;;;3.88;;
69714;SDS011;56981;53.532;49.398;2023-08-06T04:18:31;3.88;;;3.55;;
69714;SDS011;56981;53.532;49.398;2023-08-06T04:21:02;4.20;;;3.90;;
69714;SDS011;56981;53.532;49.398;2023-08-06T04:23:34;4.43;;;4.00;;
69714;SDS011;56981;53.532;49.398;2023-08-06T04:26:05;4.00;;;3.70;;
69714;SDS011;56981;53.532;49.398;2023-08-06T04:28:36;4.82;;;3.67;;
69714;SDS011;56981;53.532;49.398;2023-08-06T04:31:07;3.63;;;3.08;;
69714;SDS011;56981;53.532;49.398;2023-08-06T04:33:39;4.40;;;4.03;;
69714;SDS011;56981;53.532;49.398;2023-08-06T04:36:11;4.00;;;3.70;;
69714;SDS011;56981;53.532;49.398;2023-08-06T04:38:43;4.20;;;3.67;;
69714;SDS011;56981;53.532;49.398;2023-08-06T04:41:16;3.85;;;3.50;;
69714;SDS011;56981;53.532;49.398;2023-08-06T04:43:47;3.80;;;3.50;;
69714;SDS011;56981;53.532;49.398;2023-08-06T04:46:18;4.40;;;4.05;;
69714;SDS011;56981;53.532;49.398;2023-08-06T04:48:50;3.70;;;3.40;;
69714;SDS011;56981;53.532;49.398;2023-08-06T04:51:21;4.15;;;3.67;;
69714;SDS011;56981;53.532;49.398;2023-08-06T04:56:28;6.20;;;4.20;;
69714;SDS011;56981;53.532;49.398;2023-08-06T04:59:00;4.28;;;3.85;;
69714;SDS011;56981;53.532;49.398;2023-08-06T05:01:31;3.90;;;3.60;;
69714;SDS011;56981;53.532;49.398;2023-08-06T05:04:02;3.92;;;3.40;;
69714;SDS011;56981;53.532;49.398;2023-08-06T05:06:34;6.72;;;3.75;;
69714;SDS011;56981;53.532;49.398;2023-08-06T05:09:05;4.30;;;3.92;;
69714;SDS011;56981;53.532;49.398;2023-08-06T05:11:36;5.28;;;3.97;;
69714;SDS011;56981;53.532;49.398;2023-08-06T05:14:07;3.67;;;3.38;;
69714;SDS011;56981;53.532;49.398;2023-08-06T05:16:39;3.75;;;3.35;;
69714;SDS011;56981;53.532;49.398;2023-08-06T05:19:10;3.55;;;3.22;;
69714;SDS011;56981;53.532;49.398;2023-08-06T05:21:41;4.47;;;3.53;;
69714;SDS011;56981;53.532;49.398;2023-08-06T05:24:12;7.10;;;4.80;;
69714;SDS011;56981;53.532;49.398;2023-08-06T05:26:43;3.58;;;3.17;;
69714;SDS011;56981;53.532;49.398;2023-08-06T05:29:17;3.70;;;3.40;;
69714;SDS011;56981;53.532;49.398;2023-08-06T05:31:48;3.83;;;3.33;;
69714;SDS011;56981;53.532;49.398;2023-08-06T05:34:19;3.63;;;3.28;;
69714;SDS011;56981;53.532;49.398;2023-08-06T05:36:50;3.97;;;3.67;;
69714;SDS011;56981;53.532;49.398;2023-08-06T05:39:23;4.07;;;3.78;;
69714;SDS011;56981;53.532;49.398;2023-08-06T05:41:54;8.57;;;3.60;;
69714;SDS011;56981;53.532;49.398;2023-08-06T05:44:26;4.03;;;3.50;;
69714;SDS011;56981;53.532;49.398;2023-08-06T05:46:57;4.15;;;3.85;;
69714;SDS011;56981;53.532;49.398;2023-08-06T05:49:28;3.75;;;3.45;;
69714;SDS011;56981;53.532;49.398;2023-08-06T05:51:59;3.75;;;3.40;;
69714;SDS011;56981;53.532;49.398;2023-08-06T05:54:30;3.72;;;3.35;;
69714;SDS011;56981;53.532;49.398;2023-08-06T05:57:02;3.42;;;3.20;;
69714;SDS011;56981;53.532;49.398;2023-08-06T05:59:33;3.92;;;3.28;;
69714;SDS011;56981;53.532;49.398;2023-08-06T06:02:05;4.78;;;3.80;;
69714;SDS011;56981;53.532;49.398;2023-08-06T06:04:36;4.63;;;3.45;;
69714;SDS011;56981;53.532;49.398;2023-08-06T06:07:08;5.32;;;3.50;;
69714;SDS011;56981;53.532;49.398;2023-08-06T06:09:39;3.30;;;3.00;;
69714;SDS011;56981;53.532;49.398;2023-08-06T06:12:10;3.35;;;3.10;;
69714;SDS011;56981;53.532;49.398;2023-08-06T06:14:42;3.90;;;3.13;;
69714;SDS011;56981;53.532;49.398;2023-08-06T06:17:13;3.60;;;3.20;;
69714;SDS011;56981;53.532;49.398;2023-08-06T06:19:44;9.65;;;3.30;;
69714;SDS011;56981;53.532;49.398;2023-08-06T06:22:15;3.47;;;2.70;;
69714;SDS011;56981;53.532;49.398;2023-08-06T06:24:47;4.07;;;3.00;;
69714;SDS011;56981;53.532;49.398;2023-08-06T06:27:18;3.47;;;3.17;;
69714;SDS011;56981;53.532;49.398;2023-08-06T06:29:49;3.28;;;3.00;;
69714;SDS011;56981;53.532;49.398;2023-08-06T06:32:22;4.82;;;2.80;;
69714;SDS011;56981;53.532;49.398;2023-08-06T06:34:54;3.70;;;3.40;;
69714;SDS011;56981;53.532;49.398;2023-08-06T06:37:26;3.25;;;2.95;;
69714;SDS011;56981;53.532;49.398;2023-08-06T06:40:02;3.35;;;3.05;;
69714;SDS011;56981;53.532;49.398;2023-08-06T06:42:36;4.93;;;3.30;;
69714;SDS011;56981;53.532;49.398;2023-08-06T06:45:07;5.45;;;3.30;;
69714;SDS011;56981;53.532;49.398;2023-08-06T06:47:39;3.30;;;3.10;;
69714;SDS011;56981;53.532;49.398;2023-08-06T06:50:10;6.53;;;3.47;;
69714;SDS011;56981;53.532;49.398;2023-08-06T06:52:41;3.67;;;3.00;;
69714;SDS011;56981;53.532;49.398;2023-08-06T06:55:13;4.00;;;3.60;;
69714;SDS011;56981;53.532;49.398;2023-08-06T06:57:44;3.13;;;2.80;;
69714;SDS011;56981;53.532;49.398;2023-08-06T07:00:15;4.05;;;2.75;;
69714;SDS011;56981;53.532;49.398;2023-08-06T07:02:46;3.35;;;3.05;;
69714;SDS011;56981;53.532;49.398;2023-08-06T07:05:18;3.35;;;3.10;;
69714;SDS011;56981;53.532;49.398;2023-08-06T07:07:49;43.85;;;5.15;;
69714;SDS011;56981;53.532;49.398;2023-08-06T07:10:20;3.50;;;3.22;;
69714;SDS011;56981;53.532;49.398;2023-08-06T07:12:52;25.98;;;4.28;;
69714;SDS011;56981;53.532;49.398;2023-08-06T07:15:23;2.72;;;2.53;;
69714;SDS011;56981;53.532;49.398;2023-08-06T07:17:54;4.00;;;3.03;;
69714;SDS011;56981;53.532;49.398;2023-08-06T07:20:25;5.85;;;2.60;;
69714;SDS011;56981;53.532;49.398;2023-08-06T07:22:57;5.97;;;3.00;;
69714;SDS011;56981;53.532;49.398;2023-08-06T07:25:29;4.55;;;2.72;;
69714;SDS011;56981;53.532;49.398;2023-08-06T07:28:00;2.92;;;2.72;;
69714;SDS011;56981;53.532;49.398;2023-08-06T07:30:33;2.65;;;2.45;;
69714;SDS011;56981;53.532;49.398;2023-08-06T07:33:04;3.28;;;2.53;;
69714;SDS011;56981;53.532;49.398;2023-08-06T07:35:35;3.42;;;2.83;;
69714;SDS011;56981;53.532;49.398;2023-08-06T07:38:07;7.28;;;2.92;;
69714;SDS011;56981;53.532;49.398;2023-08-06T07:40:38;4.22;;;2.70;;
69714;SDS011;56981;53.532;49.398;2023-08-06T07:43:09;3.22;;;2.92;;
69714;SDS011;56981;53.532;49.398;2023-08-06T07:45:41;4.97;;;3.08;;
69714;SDS011;56981;53.532;49.398;2023-08-06T07:48:12;3.22;;;2.72;;
69714;SDS011;56981;53.532;49.398;2023-08-06T07:50:43;3.13;;;2.47;;
69714;SDS011;56981;53.532;49.398;2023-08-06T07:53:21;2.92;;;2.63;;
69714;SDS011;56981;53.532;49.398;2023-08-06T07:55:53;4.90;;;3.05;;
69714;SDS011;56981;53.532;49.398;2023-08-06T07:58:25;3.33;;;2.80;;
69714;SDS011;56981;53.532;49.398;2023-08-06T08:00:56;2.92;;;2.63;;
69714;SDS011;56981;53.532;49.398;2023-08-06T08:03:30;14.70;;;3.25;;
69714;SDS011;56981;53.532;49.398;2023-08-06T08:06:03;3.10;;;2.90;;
69714;SDS011;56981;53.532;49.398;2023-08-06T08:08:34;3.15;;;2.63;;
69714;SDS011;56981;53.532;49.398;2023-08-06T08:11:09;4.13;;;2.90;;
69714;SDS011;56981;53.532;49.398;2023-08-06T08:13:40;4.90;;;3.20;;
69714;SDS011;56981;53.532;49.398;2023-08-06T08:16:11;3.63;;;2.70;;
69714;SDS011;56981;53.532;49.398;2023-08-06T08:18:43;3.55;;;2.50;;
69714;SDS011;56981;53.532;49.398;2023-08-06T08:21:14;2.63;;;2.42;;
69714;SDS011;56981;53.532;49.398;2023-08-06T08:23:46;3.30;;;3.00;;
69714;SDS011;56981;53.532;49.398;2023-08-06T08:26:17;11.02;;;3.45;;
69714;SDS011;56981;53.532;49.398;2023-08-06T08:28:48;4.28;;;3.08;;
69714;SDS011;56981;53.532;49.398;2023-08-06T08:31:20;3.60;;;2.70;;
69714;SDS011;56981;53.532;49.398;2023-08-06T08:33:51;2.83;;;2.63;;
69714;SDS011;56981;53.532;49.398;2023-08-06T08:36:24;2.72;;;2.42;;
69714;SDS011;56981;53.532;49.398;2023-08-06T08:38:55;4.20;;;3.30;;
69714;SDS011;56981;53.532;49.398;2023-08-06T08:41:30;4.20;;;3.30;;
69714;SDS011;56981;53.532;49.398;2023-08-06T08:44:02;5.97;;;3.30;;
69714;SDS011;56981;53.532;49.398;2023-08-06T08:46:36;4.70;;;2.97;;
69714;SDS011;56981;53.532;49.398;2023-08-06T08:49:09;3.72;;;2.58;;
69714;SDS011;56981;53.532;49.398;2023-08-06T08:51:41;2.60;;;2.40;;
69714;SDS011;56981;53.532;49.398;2023-08-06T08:54:16;9.45;;;2.90;;
69714;SDS011;56981;53.532;49.398;2023-08-06T08:56:48;3.58;;;2.70;;
69714;SDS011;56981;53.532;49.398;2023-08-06T08:59:19;3.45;;;3.05;;
69714;SDS011;56981;53.532;49.398;2023-08-06T09:01:51;4.30;;;3.03;;
69714;SDS011;56981;53.532;49.398;2023-08-06T09:04:24;2.60;;;2.40;;
69714;SDS011;56981;53.532;49.398;2023-08-06T09:06:58;3.03;;;2.72;;
69714;SDS011;56981;53.532;49.398;2023-08-06T09:09:34;3.08;;;2.80;;
69714;SDS011;56981;53.532;49.398;2023-08-06T09:12:11;2.80;;;2.60;;
69714;SDS011;56981;53.532;49.398;2023-08-06T09:14:45;10.77;;;4.43;;
69714;SDS011;56981;53.532;49.398;2023-08-06T09:17:16;10.98;;;2.97;;
69714;SDS011;56981;53.532;49.398;2023-08-06T09:19:50;3.00;;;2.70;;
69714;SDS011;56981;53.532;49.398;2023-08-06T09:22:22;3.83;;;2.88;;
69714;SDS011;56981;53.532;49.398;2023-08-06T09:24:55;4.85;;;2.80;;
69714;SDS011;56981;53.532;49.398;2023-08-06T09:27:27;3.45;;;3.10;;
69714;SDS011;56981;53.532;49.398;2023-08-06T09:29:59;2.70;;;2.50;;
69714;SDS011;56981;53.532;49.398;2023-08-06T09:32:46;2.80;;;2.60;;
69714;SDS011;56981;53.532;49.398;2023-08-06T09:35:18;5.28;;;3.05;;
69714;SDS011;56981;53.532;49.398;2023-08-06T09:37:50;6.47;;;2.80;;
69714;SDS011;56981;53.532;49.398;2023-08-06T09:40:25;2.75;;;2.55;;
69714;SDS011;56981;53.532;49.398;2023-08-06T09:42:58;3.45;;;2.42;;
69714;SDS011;56981;53.532;49.398;2023-08-06T09:45:34;3.95;;;2.50;;
69714;SDS011;56981;53.532;49.398;2023-08-06T09:48:06;3.30;;;2.75;;
69714;SDS011;56981;53.532;49.398;2023-08-06T09:50:39;4.28;;;2.70;;
69714;SDS011;56981;53.532;49.398;2023-08-06T09:53:12;5.88;;;2.53;;
69714;SDS011;56981;53.532;49.398;2023-08-06T09:55:44;3.45;;;2.63;;
69714;SDS011;56981;53.532;49.398;2023-08-06T09:58:16;2.47;;;2.33;;
69714;SDS011;56981;53.532;49.398;2023-08-06T10:00:48;6.20;;;3.55;;
69714;SDS011;56981;53.532;49.398;2023-08-06T10:03:19;4.78;;;2.58;;
69714;SDS011;56981;53.532;49.398;2023-08-06T10:05:53;3.95;;;3.10;;
69714;SDS011;56981;53.532;49.398;2023-08-06T10:08:27;4.57;;;2.80;;
69714;SDS011;56981;53.532;49.398;2023-08-06T10:10:58;4.28;;;2.70;;
69714;SDS011;56981;53.532;49.398;2023-08-06T10:13:32;3.13;;;2.80;;
69714;SDS011;56981;53.532;49.398;2023-08-06T10:16:05;6.00;;;3.40;;
69714;SDS011;56981;53.532;49.398;2023-08-06T10:18:37;3.50;;;2.90;;
69714;SDS011;56981;53.532;49.398;2023-08-06T10:21:09;7.95;;;3.60;;
69714;SDS011;56981;53.532;49.398;2023-08-06T10:23:41;3.08;;;2.70;;
69714;SDS011;56981;53.532;49.398;2023-08-06T10:26:16;4.20;;;2.85;;
69714;SDS011;56981;53.532;49.398;2023-08-06T10:28:47;5.07;;;2.63;;
69714;SDS011;56981;53.532;49.398;2023-08-06T10:31:19;5.25;;;2.70;;
69714;SDS011;56981;53.532;49.398;2023-08-06T10:33:50;8.32;;;2.55;;
69714;SDS011;56981;53.532;49.398;2023-08-06T10:36:22;4.63;;;3.20;;
69714;SDS011;56981;53.532;49.398;2023-08-06T10:38:49;3.30;;;2.95;;
69714;SDS011;56981;53.532;49.398;2023-08-06T10:41:23;3.63;;;3.33;;
69714;SDS011;56981;53.532;49.398;2023-08-06T10:44:06;6.65;;;3.17;;
69714;SDS011;56981;53.532;49.398;2023-08-06T10:46:34;4.95;;;2.88;;
69714;SDS011;56981;53.532;49.398;2023-08-06T10:49:05;4.60;;;3.15;;
69714;SDS011;56981;53.532;49.398;2023-08-06T10:51:33;3.45;;;2.85;;
69714;SDS011;56981;53.532;49.398;2023-08-06T10:53:59;3.85;;;2.90;;
69714;SDS011;56981;53.532;49.398;2023-08-06T10:56:26;4.40;;;3.60;;
69714;SDS011;56981;53.532;49.398;2023-08-06T10:58:56;3.03;;;2.65;;
69714;SDS011;56981;53.532;49.398;2023-08-06T11:01:23;5.03;;;2.72;;
69714;SDS011;56981;53.532;49.398;2023-08-06T11:03:50;5.93;;;2.50;;
69714;SDS011;56981;53.532;49.398;2023-08-06T11:06:22;4.97;;;2.50;;
69714;SDS011;56981;53.532;49.398;2023-08-06T11:08:52;2.60;;;2.40;;
69714;SDS011;56981;53.532;49.398;2023-08-06T11:11:19;2.63;;;2.42;;
69714;SDS011;56981;53.532;49.398;2023-08-06T11:13:46;2.50;;;2.30;;
69714;SDS011;56981;53.532;49.398;2023-08-06T11:16:14;4.05;;;2.42;;
69714;SDS011;56981;53.532;49.398;2023-08-06T11:18:41;2.97;;;2.60;;
69714;SDS011;56981;53.532;49.398;2023-08-06T11:21:08;3.33;;;2.40;;
69714;SDS011;56981;53.532;49.398;2023-08-06T11:23:34;3.58;;;2.30;;
69714;SDS011;56981;53.532;49.398;2023-08-06T11:26:01;2.63;;;2.35;;
69714;SDS011;56981;53.532;49.398;2023-08-06T11:28:30;3.15;;;2.90;;
69714;SDS011;56981;53.532;49.398;2023-08-06T11:30:57;2.28;;;2.10;;
69714;SDS011;56981;53.532;49.398;2023-08-06T11:33:27;4.32;;;2.47;;
69714;SDS011;56981;53.532;49.398;2023-08-06T11:35:54;4.97;;;2.28;;
69714;SDS011;56981;53.532;49.398;2023-08-06T11:38:24;4.38;;;2.38;;
69714;SDS011;56981;53.532;49.398;2023-08-06T11:43:19;5.63;;;2.25;;
69714;SDS011;56981;53.532;49.398;2023-08-06T11:45:48;2.53;;;2.33;;
69714;SDS011;56981;53.532;49.398;2023-08-06T11:48:16;2.38;;;2.17;;
69714;SDS011;56981;53.532;49.398;2023-08-06T11:50:43;5.05;;;2.30;;
69714;SDS011;56981;53.532;49.398;2023-08-06T11:53:11;3.03;;;2.58;;
69714;SDS011;56981;53.532;49.398;2023-08-06T11:55:39;4.68;;;3.35;;
69714;SDS011;56981;53.532;49.398;2023-08-06T11:58:06;4.00;;;3.60;;
69714;SDS011;56981;53.532;49.398;2023-08-06T12:00:32;2.28;;;2.03;;
69714;SDS011;56981;53.532;49.398;2023-08-06T12:02:58;1.88;;;1.77;;
69714;SDS011;56981;53.532;49.398;2023-08-06T12:05:31;4.55;;;2.25;;
69714;SDS011;56981;53.532;49.398;2023-08-06T12:08:04;2.20;;;2.00;;
69714;SDS011;56981;53.532;49.398;2023-08-06T12:10:31;6.30;;;3.00;;
69714;SDS011;56981;53.532;49.398;2023-08-06T12:12:58;2.45;;;1.95;;
69714;SDS011;56981;53.532;49.398;2023-08-06T12:15:24;1.60;;;1.50;;
69714;SDS011;56981;53.532;49.398;2023-08-06T12:17:51;3.55;;;1.63;;
69714;SDS011;56981;53.532;49.398;2023-08-06T12:20:17;2.58;;;1.73;;
69714;SDS011;56981;53.532;49.398;2023-08-06T12:22:44;1.50;;;1.40;;
69714;SDS011;56981;53.532;49.398;2023-08-06T12:25:11;1.92;;;1.70;;
69714;SDS011;56981;53.532;49.398;2023-08-06T12:27:39;1.77;;;1.42;;
69714;SDS011;56981;53.532;49.398;2023-08-06T12:30:06;1.50;;;1.40;;
69714;SDS011;56981;53.532;49.398;2023-08-06T12:32:37;2.10;;;1.40;;
69714;SDS011;56981;53.532;49.398;2023-08-06T12:35:04;1.38;;;1.27;;
69714;SDS011;56981;53.532;49.398;2023-08-06T12:37:33;2.13;;;1.40;;
69714;SDS011;56981;53.532;49.398;2023-08-06T12:39:59;5.15;;;2.17;;
69714;SDS011;56981;53.532;49.398;2023-08-06T12:42:25;3.42;;;2.00;;
69714;SDS011;56981;53.532;49.398;2023-08-06T12:44:52;2.92;;;2.35;;
69714;SDS011;56981;53.532;49.398;2023-08-06T12:47:18;4.65;;;2.10;;
69714;SDS011;56981;53.532;49.398;2023-08-06T12:49:45;2.75;;;1.60;;
69714;SDS011;56981;53.532;49.398;2023-08-06T12:52:11;3.88;;;2.70;;
69714;SDS011;56981;53.532;49.398;2023-08-06T12:54:40;4.95;;;2.40;;
69714;SDS011;56981;53.532;49.398;2023-08-06T12:57:07;6.88;;;1.88;;
69714;SDS011;56981;53.532;49.398;2023-08-06T12:59:33;1.90;;;1.70;;
69714;SDS011;56981;53.532;49.398;2023-08-06T13:02:01;3.13;;;1.60;;
69714;SDS011;56981;53.532;49.398;2023-08-06T13:04:28;4.85;;;1.90;;
69714;SDS011;56981;53.532;49.398;2023-08-06T13:06:54;2.75;;;2.30;;
69714;SDS011;56981;53.532;49.398;2023-08-06T13:09:21;2.72;;;1.80;;
69714;SDS011;56981;53.532;49.398;2023-08-06T13:11:47;5.80;;;1.92;;
69714;SDS011;56981;53.532;49.398;2023-08-06T13:14:15;3.50;;;1.90;;
69714;SDS011;56981;53.532;49.398;2023-08-06T13:16:42;3.33;;;2.03;;
69714;SDS011;56981;53.532;49.398;2023-08-06T13:19:10;6.78;;;4.40;;
69714;SDS011;56981;53.532;49.398;2023-08-06T13:24:12;6.45;;;2.50;;
69714;SDS011;56981;53.532;49.398;2023-08-06T13:26:38;4.05;;;2.25;;
69714;SDS011;56981;53.532;49.398;2023-08-06T13:29:04;6.47;;;2.40;;
69714;SDS011;56981;53.532;49.398;2023-08-06T13:31:33;4.00;;;2.30;;
69714;SDS011;56981;53.532;49.398;2023-08-06T13:33:59;2.65;;;2.10;;
69714;SDS011;56981;53.532;49.398;2023-08-06T13:36:25;2.45;;;2.25;;
69714;SDS011;56981;53.532;49.398;2023-08-06T13:38:52;3.83;;;2.00;;
69714;SDS011;56981;53.532;49.398;2023-08-06T13:41:19;3.70;;;1.92;;
69714;SDS011;56981;53.532;49.398;2023-08-06T13:43:45;9.35;;;2.70;;
69714;SDS011;56981;53.532;49.398;2023-08-06T13:46:11;6.07;;;2.25;;
69714;SDS011;56981;53.532;49.398;2023-08-06T13:48:42;3.90;;;2.20;;
69714;SDS011;56981;53.532;49.398;2023-08-06T13:51:09;4.20;;;1.90;;
69714;SDS011;56981;53.532;49.398;2023-08-06T13:53:37;4.22;;;1.90;;
69714;SDS011;56981;53.532;49.398;2023-08-06T13:56:07;4.90;;;1.60;;
69714;SDS011;56981;53.532;49.398;2023-08-06T13:58:35;3.60;;;1.88;;
69714;SDS011;56981;53.532;49.398;2023-08-06T14:01:02;2.78;;;1.83;;
69714;SDS011;56981;53.532;49.398;2023-08-06T14:03:29;5.53;;;2.92;;
69714;SDS011;56981;53.532;49.398;2023-08-06T14:05:55;3.05;;;2.80;;
69714;SDS011;56981;53.532;49.398;2023-08-06T14:08:22;5.90;;;4.43;;
69714;SDS011;56981;53.532;49.398;2023-08-06T14:10:50;7.93;;;5.45;;
69714;SDS011;56981;53.532;49.398;2023-08-06T14:13:16;5.45;;;2.53;;
69714;SDS011;56981;53.532;49.398;2023-08-06T14:15:43;5.85;;;4.60;;
69714;SDS011;56981;53.532;49.398;2023-08-06T14:18:15;14.88;;;10.10;;
69714;SDS011;56981;53.532;49.398;2023-08-06T14:20:42;2.13;;;2.03;;
69714;SDS011;56981;53.532;49.398;2023-08-06T14:23:10;5.07;;;2.20;;
69714;SDS011;56981;53.532;49.398;2023-08-06T14:25:36;5.13;;;2.80;;
69714;SDS011;56981;53.532;49.398;2023-08-06T14:28:04;1.95;;;1.60;;
69714;SDS011;56981;53.532;49.398;2023-08-06T14:30:32;3.47;;;2.63;;
69714;SDS011;56981;53.532;49.398;2023-08-06T14:32:59;3.53;;;2.75;;
69714;SDS011;56981;53.532;49.398;2023-08-06T14:35:26;4.07;;;1.80;;
69714;SDS011;56981;53.532;49.398;2023-08-06T14:37:53;4.28;;;2.15;;
69714;SDS011;56981;53.532;49.398;2023-08-06T14:40:20;4.25;;;2.20;;
69714;SDS011;56981;53.532;49.398;2023-08-06T14:42:46;3.05;;;1.95;;
69714;SDS011;56981;53.532;49.398;2023-08-06T14:45:12;6.13;;;1.80;;
69714;SDS011;56981;53.532;49.398;2023-08-06T14:47:38;2.83;;;1.88;;
69714;SDS011;56981;53.532;49.398;2023-08-06T14:50:05;2.08;;;1.83;;
69714;SDS011;56981;53.532;49.398;2023-08-06T14:52:31;9.52;;;2.38;;
69714;SDS011;56981;53.532;49.398;2023-08-06T14:54:59;5.15;;;2.65;;
69714;SDS011;56981;53.532;49.398;2023-08-06T14:57:26;3.88;;;2.00;;
69714;SDS011;56981;53.532;49.398;2023-08-06T14:59:53;3.92;;;2.00;;
69714;SDS011;56981;53.532;49.398;2023-08-06T15:02:20;3.08;;;2.33;;
69714;SDS011;56981;53.532;49.398;2023-08-06T15:04:47;7.50;;;1.95;;